Time;durP1;ratioP1;P1;durP2;ratioP2;P2;SDS_P1;SDS_P2;PMS_P1;PMS_P2;Temp;Humidity;BMP_temperature;BMP_pressure;BME280_temperature;BME280_humidity;BME280_pressure;Samples;Min_cycle;Max_cycle;Signal;HPM_P1;HPM_P2
2021/10/22 00:01:29;;;;;;;20.15;14.23;;;;;;;29.08;69.18;101157.75;5030879;28;70795;-36
2021/10/22 00:04:00;;;;;;;21.00;14.48;;;;;;;29.11;69.92;101160.91;5032305;28;65791;-35
2021/10/22 00:06:31;;;;;;;39.22;15.70;;;;;;;29.24;66.77;101165.50;5010392;28;70592;-36
2021/10/22 00:09:02;;;;;;;23.85;14.77;;;;;;;29.26;67.63;101170.72;5023577;28;66559;-36
2021/10/22 00:11:35;;;;;;;23.08;15.95;;;;;;;29.22;70.38;101170.25;5029729;28;69983;-35
2021/10/22 00:14:06;;;;;;;39.05;17.02;;;;;;;29.30;67.86;101171.97;5032157;28;66765;-35
2021/10/22 00:16:37;;;;;;;35.72;16.63;;;;;;;29.29;70.07;101179.25;5029469;28;70208;-34
2021/10/22 00:19:09;;;;;;;32.08;15.13;;;;;;;29.30;69.75;101174.66;5028376;28;64763;-35
2021/10/22 00:21:41;;;;;;;25.25;15.00;;;;;;;29.38;68.87;101188.00;5025091;28;70351;-35
2021/10/22 00:24:12;;;;;;;31.95;14.68;;;;;;;29.36;71.47;101182.81;5030538;28;66265;-34
2021/10/22 00:26:44;;;;;;;44.08;16.27;;;;;;;29.49;70.28;101191.97;5032207;28;69367;-34
2021/10/22 00:29:15;;;;;;;44.53;15.95;;;;;;;29.47;68.05;101169.72;5031055;28;66189;-34
2021/10/22 00:31:45;;;;;;;45.92;14.38;;;;;;;29.61;67.33;101190.34;5030307;28;70181;-34
2021/10/22 00:34:17;;;;;;;25.53;14.60;;;;;;;29.60;66.78;101188.69;5032374;28;65210;-34
2021/10/22 00:36:48;;;;;;;22.00;13.70;;;;;;;29.66;66.89;101193.31;5047198;28;69795;-35
2021/10/22 00:39:19;;;;;;;26.50;13.15;;;;;;;29.66;67.24;101193.31;5032049;28;65395;-34
2021/10/22 00:41:51;;;;;;;20.80;13.57;;;;;;;29.75;67.16;101197.47;5032414;28;71351;-35
2021/10/22 00:44:22;;;;;;;15.02;12.70;;;;;;;29.72;66.71;101189.78;5033235;28;65782;-35
2021/10/22 00:46:54;;;;;;;18.80;12.98;;;;;;;29.59;67.26;101165.41;5033274;28;70061;-35
2021/10/22 00:49:27;;;;;;;15.93;12.57;;;;;;;29.82;66.69;101209.16;5035130;28;66502;-35
2021/10/22 00:51:58;;;;;;;17.13;12.75;;;;;;;29.85;67.21;101210.59;5025346;28;70685;-35
2021/10/22 00:54:30;;;;;;;18.02;13.15;;;;;;;29.79;66.81;101203.31;5031231;28;66369;-35
2021/10/22 00:57:01;;;;;;;13.43;12.03;;;;;;;29.91;66.83;101212.47;5030614;28;69238;-35
2021/10/22 00:59:33;;;;;;;21.60;11.70;;;;;;;29.80;66.86;101202.28;5020651;28;66624;-35
2021/10/22 01:02:04;;;;;;;;;;;;;;;29.58;67.95;101223.19;5029814;28;70105;-35
2021/10/22 01:04:35;;;;;;;13.02;11.05;;;;;;;29.90;66.69;101226.22;5038353;28;66372;-35
2021/10/22 01:07:07;;;;;;;14.43;11.05;;;;;;;29.73;67.20;101188.75;5027480;28;70015;-39
2021/10/22 01:09:39;;;;;;;18.48;11.52;;;;;;;30.01;67.23;101236.44;5028602;28;65164;-35
2021/10/22 01:12:12;;;;;;;13.38;11.57;;;;;;;29.94;66.92;101227.47;5020737;28;70225;-35
2021/10/22 01:14:43;;;;;;;16.35;11.48;;;;;;;30.04;66.69;101244.97;5033808;28;65230;-35
2021/10/22 01:17:41;;;;;;;16.40;11.02;;;;;;;29.95;67.30;101250.75;5022257;28;70068;-35
2021/10/22 01:20:14;;;;;;;14.77;10.57;;;;;;;29.84;67.18;101217.91;5034981;28;65448;-35
2021/10/22 01:22:47;;;;;;;12.65;10.75;;;;;;;30.12;66.84;101262.88;5027058;28;70207;-35
2021/10/22 01:25:21;;;;;;;11.65;10.38;;;;;;;30.15;66.94;101261.63;5033896;28;66788;-35
2021/10/22 01:27:54;;;;;;;11.02;10.00;;;;;;;30.16;67.13;101264.13;5023828;28;69939;-34
2021/10/22 01:30:27;;;;;;;10.98;10.07;;;;;;;30.10;66.92;101253.31;5028252;28;66405;-35
2021/10/22 01:33:08;;;;;;;10.15;9.27;;;;;;;29.88;67.20;101218.31;5034649;28;69519;-34
2021/10/22 01:35:39;;;;;;;9.35;8.55;;;;;;;30.21;66.90;101272.47;5029347;28;65984;-34
2021/10/22 01:38:15;;;;;;;9.93;9.13;;;;;;;30.25;67.09;101279.13;5012894;28;70047;-35
2021/10/22 01:40:49;;;;;;;10.10;9.10;;;;;;;30.27;67.22;101274.38;5019037;28;65496;-34
2021/10/22 01:43:23;;;;;;;9.50;8.55;;;;;;;30.25;67.14;101276.44;5031577;28;69875;-34
2021/10/22 01:45:54;;;;;;;9.68;8.57;;;;;;;30.23;67.27;101273.13;5031648;28;66724;-35
2021/10/22 01:48:25;;;;;;;9.40;8.57;;;;;;;30.33;67.39;101290.81;5025274;28;69002;-34
2021/10/22 01:50:57;;;;;;;8.57;7.80;;;;;;;30.35;67.12;101289.56;5027986;28;66710;-35
2021/10/22 01:53:32;;;;;;;9.20;8.32;;;;;;;30.29;67.43;101268.75;5036844;28;69046;-35
2021/10/22 01:56:03;;;;;;;9.25;8.45;;;;;;;30.41;67.15;101282.50;5028070;28;66482;-35
2021/10/22 01:58:34;;;;;;;9.63;8.93;;;;;;;30.36;67.06;101275.00;5030271;28;69838;-34
2021/10/22 02:01:07;;;;;;;9.02;8.13;;;;;;;30.45;67.36;101286.44;5034069;28;66176;-34
2021/10/22 02:03:38;;;;;;;10.10;9.20;;;;;;;30.44;67.21;101282.06;5021750;28;70086;-35
2021/10/22 02:06:10;;;;;;;9.55;8.75;;;;;;;30.47;67.45;101281.66;5033716;28;65310;-36
2021/10/22 02:08:41;;;;;;;9.77;9.10;;;;;;;30.49;67.76;101282.28;5029153;28;69256;-33
2021/10/22 02:11:12;;;;;;;9.60;8.87;;;;;;;30.53;67.25;101286.22;5022101;28;66207;-35
2021/10/22 02:13:44;;;;;;;;;;;;;;;30.18;68.31;101289.09;5026072;28;70338;-35
2021/10/22 02:16:15;;;;;;;9.88;9.00;;;;;;;30.54;67.71;101293.34;5020827;28;66467;-35
2021/10/22 02:18:46;;;;;;;9.73;9.02;;;;;;;30.58;67.29;101293.75;5032238;28;69190;-34
2021/10/22 02:21:20;;;;;;;9.88;9.18;;;;;;;30.63;67.50;101291.25;5031633;28;66076;-34
2021/10/22 02:23:52;;;;;;;16.02;9.30;;;;;;;30.65;67.74;101292.72;5027073;28;70492;-34
2021/10/22 02:26:24;;;;;;;;;;;;;;;30.32;68.32;101300.00;5021344;28;65429;-35
2021/10/22 02:28:55;;;;;;;9.75;8.80;;;;;;;30.65;67.75;101294.59;5029562;28;70276;-35
2021/10/22 02:31:30;;;;;;;10.90;9.90;;;;;;;30.70;67.42;101298.34;5009230;28;65151;-36
2021/10/22 02:34:05;;;;;;;10.23;9.27;;;;;;;30.70;67.87;101282.09;5024780;28;70203;-37
2021/10/22 02:36:36;;;;;;;10.23;9.20;;;;;;;30.77;67.86;101287.47;5025164;28;66176;-35
2021/10/22 02:39:08;;;;;;;10.57;9.37;;;;;;;30.68;67.43;101276.03;5029058;28;70673;-35
2021/10/22 02:41:41;;;;;;;9.70;8.90;;;;;;;30.72;67.81;101274.56;5033474;28;65948;-35
2021/10/22 02:44:15;;;;;;;10.80;9.90;;;;;;;30.81;67.58;101282.50;5027603;28;70321;-33
2021/10/22 02:46:46;;;;;;;10.05;9.27;;;;;;;30.87;67.90;101278.94;5019303;28;66276;-36
2021/10/22 02:49:17;;;;;;;10.40;9.60;;;;;;;30.89;67.74;101290.41;5021498;28;69930;-36
2021/10/22 02:51:48;;;;;;;10.35;9.65;;;;;;;30.90;67.66;101275.84;5022917;28;65498;-34
2021/10/22 02:54:21;;;;;;;9.45;8.65;;;;;;;30.91;67.74;101274.78;5023657;28;70018;-40
2021/10/22 02:56:53;;;;;;;9.52;8.85;;;;;;;30.98;67.30;101278.31;5041834;28;66170;-34
2021/10/22 02:59:24;;;;;;;10.02;9.10;;;;;;;31.00;67.53;101269.97;5025762;28;69475;-36
2021/10/22 03:01:55;;;;;;;10.35;9.48;;;;;;;31.02;67.94;101274.13;5025574;28;65763;-35
2021/10/22 03:04:26;;;;;;;10.00;9.30;;;;;;;31.01;67.58;101261.66;5030240;28;70109;-34
2021/10/22 03:06:58;;;;;;;11.00;9.90;;;;;;;31.05;67.49;101260.16;5030652;28;66252;-36
2021/10/22 03:09:28;;;;;;;10.43;9.57;;;;;;;31.03;67.47;101248.69;5030370;28;69991;-35
2021/10/22 03:11:59;;;;;;;9.68;8.88;;;;;;;31.10;67.49;101257.66;5037101;28;66548;-35
2021/10/22 03:14:30;;;;;;;10.88;9.55;;;;;;;31.06;67.74;101245.56;5018647;28;70203;-36
2021/10/22 03:17:01;;;;;;;9.75;9.07;;;;;;;31.16;67.87;101248.66;5026998;28;66090;-35
2021/10/22 03:19:32;;;;;;;10.20;9.35;;;;;;;31.15;67.86;101236.16;5025201;28;70185;-35
2021/10/22 03:22:03;;;;;;;9.98;9.18;;;;;;;31.22;67.57;101230.72;5032520;28;65177;-34
2021/10/22 03:24:34;;;;;;;8.97;8.47;;;;;;;31.15;67.50;101214.50;5034089;28;69989;-35
2021/10/22 03:27:10;;;;;;;10.63;9.75;;;;;;;31.23;67.49;101216.13;5027519;28;66710;-35
2021/10/22 03:29:42;;;;;;;9.98;9.30;;;;;;;31.28;67.54;101218.19;5016604;28;70178;-36
2021/10/22 03:32:14;;;;;;;9.77;9.02;;;;;;;31.29;67.25;101219.88;4999998;28;65077;-36
2021/10/22 03:34:45;;;;;;;10.25;9.25;;;;;;;31.24;67.53;101201.53;5023818;28;69822;-36
2021/10/22 03:37:16;;;;;;;9.70;8.90;;;;;;;31.33;67.74;101213.78;5030309;28;66051;-35
2021/10/22 03:39:48;;;;;;;9.40;8.45;;;;;;;31.34;67.22;101206.47;5023124;28;70362;-35
2021/10/22 03:42:19;;;;;;;9.60;8.85;;;;;;;31.37;67.77;101190.66;5020754;28;66415;-34
2021/10/22 03:44:51;;;;;;;9.95;9.13;;;;;;;31.36;67.74;101182.72;5016880;28;69009;-37
2021/10/22 03:47:22;;;;;;;;;;;;;;;31.09;69.13;101182.84;5028122;28;66114;-35
2021/10/22 03:49:55;;;;;;;9.27;8.65;;;;;;;31.39;67.58;101171.44;5026966;28;69799;-35
2021/10/22 03:52:25;;;;;;;8.93;8.43;;;;;;;31.45;67.33;101170.56;5030806;28;66497;-35
2021/10/22 03:54:56;;;;;;;9.10;8.50;;;;;;;31.48;67.49;101163.91;5025675;28;69470;-35
2021/10/22 03:57:28;;;;;;;8.48;7.97;;;;;;;31.47;67.12;101152.22;5030381;28;66019;-35
2021/10/22 04:00:01;;;;;;;11.13;8.60;;;;;;;31.51;67.32;101158.88;5023423;28;70092;-35
2021/10/22 04:02:39;;;;;;;9.27;8.52;;;;;;;31.55;67.13;101143.84;5015941;28;66359;-35
2021/10/22 04:05:13;;;;;;;9.82;9.00;;;;;;;31.54;67.03;101144.91;5031319;28;70406;-35
2021/10/22 04:07:44;;;;;;;9.47;7.80;;;;;;;31.57;66.94;101141.75;5016692;28;66394;-35
2021/10/22 04:10:15;;;;;;;8.27;7.68;;;;;;;31.59;67.32;101145.06;5031205;28;70065;-35
2021/10/22 04:12:46;;;;;;;8.90;8.18;;;;;;;31.68;66.84;101145.63;5014760;28;65403;-35
2021/10/22 04:15:17;;;;;;;8.82;8.10;;;;;;;31.70;66.70;101145.41;5027048;28;70765;-35
2021/10/22 04:17:48;;;;;;;8.55;7.93;;;;;;;31.66;66.66;101128.75;5027830;28;65361;-35
2021/10/22 04:20:19;;;;;;;7.75;7.15;;;;;;;31.67;66.86;101118.72;5024461;28;69927;-35
2021/10/22 04:22:50;;;;;;;7.80;7.30;;;;;;;31.75;66.68;101126.59;5028345;28;67187;-35
2021/10/22 04:25:21;;;;;;;8.02;7.53;;;;;;;31.76;66.68;101118.25;5027882;28;70299;-36
2021/10/22 04:27:52;;;;;;;8.43;7.82;;;;;;;31.79;66.39;101117.81;5029650;28;66217;-36
2021/10/22 04:30:23;;;;;;;13.90;7.63;;;;;;;31.83;66.33;101116.28;5034885;28;70549;-35
2021/10/22 04:32:55;;;;;;;8.10;7.38;;;;;;;31.85;66.57;101101.69;5034558;28;66128;-35
2021/10/22 04:35:26;;;;;;;7.95;7.25;;;;;;;31.59;65.96;101049.31;5024184;28;70994;-35
2021/10/22 04:40:33;;;;;;;7.67;6.93;;;;;;;31.87;66.27;101081.41;5036398;28;69985;-35
2021/10/22 04:43:12;;;;;;;7.13;6.53;;;;;;;31.92;66.44;101081.59;5022934;28;66308;-35
2021/10/22 04:45:46;;;;;;;7.15;6.65;;;;;;;31.90;66.16;101069.28;5035024;28;69715;-35
2021/10/22 04:48:17;;;;;;;7.45;6.85;;;;;;;31.97;65.90;101073.63;5022368;28;66179;-35
2021/10/22 04:50:51;;;;;;;6.67;6.17;;;;;;;31.96;66.34;101069.28;5026993;28;70023;-36
2021/10/22 04:53:28;;;;;;;7.25;6.57;;;;;;;32.01;65.74;101060.44;5029731;28;65988;-35
2021/10/22 04:55:59;;;;;;;7.93;7.32;;;;;;;32.02;65.80;101057.50;5023882;28;68792;-35
2021/10/22 04:58:30;;;;;;;7.32;6.57;;;;;;;31.98;65.85;101045.47;5024932;28;66083;-35
2021/10/22 05:01:02;;;;;;;7.70;6.82;;;;;;;32.04;65.57;101044.56;5031103;28;71030;-35
2021/10/22 05:03:33;;;;;;;7.15;6.75;;;;;;;32.08;65.27;101038.69;5044657;28;65463;-35
2021/10/22 05:06:04;;;;;;;7.63;6.93;;;;;;;32.09;65.63;101032.19;5030934;28;69255;-35
2021/10/22 05:08:35;;;;;;;7.18;6.57;;;;;;;32.05;65.41;101019.06;5023594;28;65713;-35
2021/10/22 05:11:06;;;;;;;7.70;7.07;;;;;;;32.13;65.43;101022.56;5027476;28;69408;-35
2021/10/22 05:13:37;;;;;;;7.38;6.72;;;;;;;32.15;65.31;101018.56;5029391;28;65728;-35
2021/10/22 05:16:07;;;;;;;9.10;7.70;;;;;;;32.19;65.43;101018.94;5030422;28;70429;-35
2021/10/22 05:18:38;;;;;;;8.13;7.43;;;;;;;32.19;65.28;101011.63;5029892;28;66080;-35
2021/10/22 05:21:10;;;;;;;7.60;6.90;;;;;;;31.84;65.11;100940.78;5017596;28;69690;-36
2021/10/22 05:23:41;;;;;;;7.68;7.07;;;;;;;32.22;65.14;101008.44;5024774;28;66208;-35
2021/10/22 05:26:12;;;;;;;7.65;7.03;;;;;;;32.25;65.14;101015.31;5025618;28;69253;-37
2021/10/22 05:28:43;;;;;;;7.87;7.37;;;;;;;32.25;65.42;101016.13;5028535;28;66297;-36
2021/10/22 05:31:14;;;;;;;9.02;7.40;;;;;;;32.27;65.16;101014.03;5029768;28;69748;-35
2021/10/22 05:33:45;;;;;;;7.78;7.22;;;;;;;32.30;64.80;101003.78;5031451;28;66114;-35
2021/10/22 05:36:16;;;;;;;8.65;7.95;;;;;;;32.27;64.94;100988.78;5024644;28;69997;-35
2021/10/22 05:38:48;;;;;;;7.60;7.00;;;;;;;32.25;65.17;100975.41;5016821;28;66593;-36
2021/10/22 05:41:19;;;;;;;7.75;6.70;;;;;;;32.32;65.23;100986.22;5033473;28;69935;-34
2021/10/22 05:43:50;;;;;;;7.72;7.03;;;;;;;32.33;65.23;100992.47;5018223;28;66251;-35
2021/10/22 05:46:21;;;;;;;6.82;6.40;;;;;;;32.31;64.80;100984.53;5035024;28;71411;-35
2021/10/22 05:48:52;;;;;;;7.70;6.90;;;;;;;32.32;64.98;100996.22;5024955;28;67024;-35
2021/10/22 05:51:42;;;;;;;8.27;7.47;;;;;;;32.30;64.76;100988.31;5022719;28;69898;-35
2021/10/22 05:54:13;;;;;;;8.07;7.47;;;;;;;32.33;65.24;100997.91;5032692;28;66543;-35
2021/10/22 05:56:45;;;;;;;7.55;7.07;;;;;;;32.33;64.85;101001.44;5019869;28;70971;-36
2021/10/22 05:59:17;;;;;;;7.63;7.07;;;;;;;32.32;65.21;100994.34;5019391;28;66050;-37
2021/10/22 06:01:49;;;;;;;13.40;7.28;;;;;;;32.31;65.26;100995.41;5013323;28;69901;-35
2021/10/22 06:04:21;;;;;;;7.38;6.47;;;;;;;32.26;64.81;100970.81;5030921;28;66349;-38
2021/10/22 06:06:52;;;;;;;7.30;5.50;;;;;;;32.33;65.25;100992.47;5033317;28;70020;-34
2021/10/22 06:09:22;;;;;;;5.75;5.15;;;;;;;32.32;65.18;100994.34;5024802;28;66368;-35
2021/10/22 06:11:53;;;;;;;6.55;5.95;;;;;;;32.09;64.87;100951.59;5028702;28;69019;-36
2021/10/22 06:14:26;;;;;;;6.53;5.82;;;;;;;32.28;65.31;100985.00;5033067;28;66401;-35
2021/10/22 06:16:58;;;;;;;6.07;5.68;;;;;;;32.30;65.23;100988.31;5016704;28;70225;-36
2021/10/22 06:19:34;;;;;;;6.63;6.00;;;;;;;32.30;65.49;100999.19;5025785;28;65857;-36
2021/10/22 06:22:19;;;;;;;7.57;6.85;;;;;;;32.30;65.06;101004.59;5016981;28;70635;-36
2021/10/22 06:24:50;;;;;;;9.35;8.30;;;;;;;32.30;65.22;101007.31;5016057;28;67266;-35
2021/10/22 06:27:21;;;;;;;10.98;7.40;;;;;;;32.26;65.16;100997.97;5032203;28;69240;-35
2021/10/22 06:29:52;;;;;;;8.30;7.50;;;;;;;32.30;65.36;100985.59;5048782;28;66542;-35
2021/10/22 06:32:24;;;;;;;7.20;6.63;;;;;;;32.29;65.18;100970.38;5042951;28;69459;-35
2021/10/22 06:34:55;;;;;;;6.57;6.07;;;;;;;32.28;65.21;100955.13;5012947;28;66481;-35
2021/10/22 06:37:26;;;;;;;6.90;6.38;;;;;;;32.30;65.46;100947.59;5024951;28;68941;-36
2021/10/22 06:39:57;;;;;;;6.90;6.40;;;;;;;32.25;64.99;100942.03;5028996;28;65102;-36
2021/10/22 06:42:28;;;;;;;6.85;6.20;;;;;;;32.28;64.94;100947.00;5033083;28;70369;-35
2021/10/22 06:44:59;;;;;;;6.57;6.03;;;;;;;32.23;65.19;100944.13;5032976;28;66088;-36
2021/10/22 06:47:30;;;;;;;7.87;6.57;;;;;;;32.28;65.09;100957.84;5033374;28;69927;-35
2021/10/22 06:50:01;;;;;;;6.75;6.25;;;;;;;32.28;65.31;100974.13;5005078;28;65943;-35
2021/10/22 06:52:32;;;;;;;6.30;5.80;;;;;;;32.28;64.95;100990.41;5027335;28;70324;-36
2021/10/22 06:55:03;;;;;;;6.35;5.95;;;;;;;32.25;65.09;100980.03;5028840;28;65995;-36
2021/10/22 06:57:39;;;;;;;7.57;6.50;;;;;;;32.22;65.13;100969.63;5026726;28;69062;-35
2021/10/22 07:00:12;;;;;;;7.80;6.82;;;;;;;32.26;65.09;100957.25;5026790;28;65914;-36
2021/10/22 07:02:55;;;;;;;7.15;6.68;;;;;;;32.21;65.33;100951.69;5025476;28;70020;-34
2021/10/22 07:08:03;;;;;;;6.07;5.70;;;;;;;32.25;65.02;100947.44;5028475;28;69411;-35
2021/10/22 07:10:35;;;;;;;7.80;6.30;;;;;;;32.23;65.43;100927.84;5026462;28;65441;-36
2021/10/22 07:13:06;;;;;;;6.35;5.93;;;;;;;32.12;65.15;100909.63;5020895;28;69917;-35
2021/10/22 07:15:38;;;;;;;6.50;6.00;;;;;;;32.17;65.53;100917.91;5021948;28;65193;-35
2021/10/22 07:18:09;;;;;;;6.90;6.23;;;;;;;32.19;65.36;100921.22;5027875;28;70051;-35
2021/10/22 07:20:43;;;;;;;6.30;5.90;;;;;;;31.99;65.52;100881.59;5028336;28;43233;-34
2021/10/22 07:23:14;;;;;;;6.65;6.13;;;;;;;32.16;65.02;100918.97;5028876;28;70040;-35
2021/10/22 07:25:45;;;;;;;7.22;6.72;;;;;;;32.19;65.44;100915.81;5029374;28;66238;-35
2021/10/22 07:28:16;;;;;;;7.85;6.80;;;;;;;32.19;65.45;100922.06;5030422;28;70181;-35
2021/10/22 07:30:48;;;;;;;10.32;7.20;;;;;;;32.20;65.36;100928.31;5030178;28;66276;-35
2021/10/22 07:33:21;;;;;;;8.57;7.68;;;;;;;32.16;65.57;100916.25;5025449;28;69942;-35
2021/10/22 07:35:55;;;;;;;7.88;7.07;;;;;;;32.18;65.68;100914.13;5032674;28;66256;-35
2021/10/22 07:38:26;;;;;;;8.02;6.60;;;;;;;32.16;65.39;100917.09;5026880;28;69607;-36
2021/10/22 07:40:57;;;;;;;6.72;6.32;;;;;;;32.15;65.61;100920.00;5020950;28;66327;-35
2021/10/22 07:43:30;;;;;;;8.75;6.90;;;;;;;32.15;65.61;100926.28;5030206;28;69951;-35
2021/10/22 07:46:01;;;;;;;8.43;7.82;;;;;;;32.16;65.39;100930.66;5014890;28;65682;-36
2021/10/22 07:48:33;;;;;;;13.27;8.57;;;;;;;32.16;65.72;100927.13;5019123;28;70161;-34
2021/10/22 07:51:04;;;;;;;9.50;8.38;;;;;;;32.12;65.68;100921.28;5033475;28;65073;-36
2021/10/22 07:53:35;;;;;;;13.97;8.47;;;;;;;32.12;65.88;100923.19;5026361;28;69807;-36
2021/10/22 07:56:06;;;;;;;8.52;7.80;;;;;;;32.09;65.89;100920.94;5033188;28;65537;-35
2021/10/22 07:58:37;;;;;;;10.88;8.25;;;;;;;32.09;65.72;100927.19;5028381;28;68926;-36
2021/10/22 08:01:10;;;;;;;11.30;6.97;;;;;;;32.11;65.54;100935.09;5024336;28;66168;-37
2021/10/22 08:03:41;;;;;;;9.73;8.75;;;;;;;32.02;65.94;100930.00;5028789;28;70494;-36
2021/10/22 08:06:13;;;;;;;10.85;9.82;;;;;;;32.03;66.06;100934.34;5024300;28;66215;-35
2021/10/22 08:08:48;;;;;;;13.85;11.52;;;;;;;32.09;65.95;100929.06;5028555;28;69966;-35
2021/10/22 08:11:20;;;;;;;18.98;13.07;;;;;;;32.03;65.82;100918.06;5028518;28;66649;-35
2021/10/22 08:13:51;;;;;;;18.35;13.68;;;;;;;32.04;65.87;100914.31;5026615;28;69596;-35
2021/10/22 08:16:22;;;;;;;18.73;14.18;;;;;;;32.04;65.71;100914.31;5025155;28;65222;-35
2021/10/22 08:18:53;;;;;;;19.60;12.63;;;;;;;32.04;65.96;100908.06;5017884;28;69023;-35
2021/10/22 08:24:12;;;;;;;26.48;15.13;;;;;;;32.02;66.37;100921.84;5017118;28;70303;-35
2021/10/22 08:26:44;;;;;;;19.63;14.10;;;;;;;32.02;66.04;100927.28;5017722;28;66735;-35
2021/10/22 08:29:27;;;;;;;14.15;12.75;;;;;;;32.00;66.12;100918.53;5026061;28;70174;-36
2021/10/22 08:31:58;;;;;;;17.48;13.55;;;;;;;32.01;66.36;100913.91;5026029;28;66295;-34
2021/10/22 08:34:30;;;;;;;19.35;13.90;;;;;;;32.03;66.16;100917.25;5026373;28;70051;-35
2021/10/22 08:37:02;;;;;;;13.82;12.52;;;;;;;32.01;65.95;100912.06;5037489;28;66297;-34
2021/10/22 08:39:33;;;;;;;17.55;12.15;;;;;;;32.02;65.96;100916.41;5020471;28;69806;-36
2021/10/22 08:42:05;;;;;;;16.40;11.50;;;;;;;32.00;66.36;100918.53;5037520;28;65515;-36
2021/10/22 08:44:36;;;;;;;15.52;11.98;;;;;;;31.92;66.14;100893.59;5040604;28;69742;-35
2021/10/22 08:47:07;;;;;;;12.68;11.63;;;;;;;31.99;66.30;100895.19;5006114;28;65921;-35
2021/10/22 08:49:38;;;;;;;17.20;11.60;;;;;;;31.96;66.18;100894.81;5022620;28;70073;-36
2021/10/22 08:52:09;;;;;;;12.93;11.63;;;;;;;31.91;66.45;100883.78;5035501;28;66144;-34
2021/10/22 08:54:40;;;;;;;12.23;11.07;;;;;;;31.98;66.14;100895.38;5024753;28;70068;-35
2021/10/22 08:57:16;;;;;;;12.85;10.75;;;;;;;31.98;66.45;100893.53;5028163;28;65543;-35
2021/10/22 08:59:48;;;;;;;11.45;10.45;;;;;;;31.97;66.22;100899.16;5024730;28;70106;-36
2021/10/22 09:02:28;;;;;;;12.70;10.07;;;;;;;31.96;66.65;100901.06;5022633;28;66314;-36
2021/10/22 09:05:20;;;;;;;10.38;9.60;;;;;;;31.58;66.73;100850.56;5018763;28;70060;-35
2021/10/22 09:07:58;;;;;;;12.05;8.90;;;;;;;31.94;66.54;100903.16;5031448;28;66775;-36
2021/10/22 09:10:33;;;;;;;11.02;10.02;;;;;;;31.95;66.18;100907.53;5026828;28;70147;-35
2021/10/22 09:13:07;;;;;;;11.07;8.57;;;;;;;31.69;66.53;100869.84;5027919;28;65912;-34
2021/10/22 09:15:42;;;;;;;10.70;8.55;;;;;;;31.61;66.36;100866.34;5018200;28;69438;-35
2021/10/22 09:18:17;;;;;;;8.57;7.85;;;;;;;31.93;66.72;100925.94;5028765;28;66277;-35
2021/10/22 09:20:58;;;;;;;10.20;8.68;;;;;;;31.91;66.69;100936.16;5034359;28;70406;-35
2021/10/22 09:23:35;;;;;;;9.15;8.25;;;;;;;31.88;66.92;100931.16;5027451;28;66686;-35
2021/10/22 09:26:24;;;;;;;7.45;6.85;;;;;;;31.76;66.96;100927.53;5035757;28;70097;-35
2021/10/22 09:28:56;;;;;;;14.93;11.40;;;;;;;31.88;66.68;100952.88;5033009;28;65427;-35
2021/10/22 09:31:27;;;;;;;15.32;10.57;;;;;;;31.85;66.92;100950.63;5022421;28;70018;-35
2021/10/22 09:34:03;;;;;;;12.65;11.43;;;;;;;31.53;66.76;100901.91;5015563;28;66488;-35
2021/10/22 09:36:35;;;;;;;12.25;10.38;;;;;;;31.85;66.65;100947.06;5023335;28;69435;-34
2021/10/22 09:39:21;;;;;;;9.85;8.95;;;;;;;31.73;66.46;100933.41;5024110;28;66092;-35
2021/10/22 09:41:56;;;;;;;10.15;9.25;;;;;;;31.86;66.85;100954.16;5025757;28;69317;-35
2021/10/22 09:44:30;;;;;;;10.40;9.50;;;;;;;31.42;66.69;100889.09;5028192;28;66862;-35
2021/10/22 09:47:07;;;;;;;11.52;10.60;;;;;;;31.83;66.92;100955.44;5011574;28;70055;-35
2021/10/22 09:49:47;;;;;;;12.65;11.30;;;;;;;31.52;66.92;100900.25;5020593;28;65311;-35
2021/10/22 09:52:24;;;;;;;15.57;13.23;;;;;;;31.81;67.17;100957.53;5021169;28;69187;-35
2021/10/22 09:55:09;;;;;;;11.35;10.25;;;;;;;31.75;66.96;100956.53;5019412;28;65992;-36
2021/10/22 09:57:45;;;;;;;11.25;10.27;;;;;;;31.80;67.30;100959.41;5017678;28;70101;-35
2021/10/22 10:00:22;;;;;;;11.30;10.40;;;;;;;31.78;67.07;100956.09;5025309;28;65897;-35
2021/10/22 10:02:53;;;;;;;12.25;11.02;;;;;;;31.79;67.27;100951.53;5019513;28;69402;-36
2021/10/22 10:05:26;;;;;;;11.10;10.23;;;;;;;31.77;67.19;100959.88;5030961;28;66574;-36
2021/10/22 10:08:00;;;;;;;12.88;10.10;;;;;;;31.79;67.32;100959.66;5022204;28;70337;-34
2021/10/22 10:10:31;;;;;;;11.80;10.60;;;;;;;31.77;67.10;100950.91;5033451;28;67013;-35
2021/10/22 10:13:02;;;;;;;11.23;10.18;;;;;;;31.74;67.03;100954.06;5024185;28;69894;-35
2021/10/22 10:15:33;;;;;;;10.80;10.00;;;;;;;31.77;67.25;100956.34;5015953;28;65453;-35
2021/10/22 10:18:08;;;;;;;10.60;9.57;;;;;;;31.73;67.16;100963.25;5013795;28;69939;-35
2021/10/22 10:20:39;;;;;;;11.80;10.80;;;;;;;31.75;67.04;100980.13;5022488;28;65906;-35
2021/10/22 10:23:10;;;;;;;12.93;11.60;;;;;;;31.73;67.29;100976.81;5031047;28;69447;-35
2021/10/22 10:25:42;;;;;;;12.70;11.60;;;;;;;31.72;67.69;100973.25;5033587;28;66053;-35
2021/10/22 10:28:13;;;;;;;15.48;11.27;;;;;;;31.71;67.52;100973.50;5021217;28;70290;-34
2021/10/22 10:30:44;;;;;;;14.05;11.05;;;;;;;31.72;67.64;100977.88;5029902;28;65909;-35
2021/10/22 10:33:31;;;;;;;11.90;10.80;;;;;;;31.61;67.84;100974.00;5032794;28;70219;-35
2021/10/22 10:36:02;;;;;;;11.63;10.73;;;;;;;31.67;67.52;100973.09;5021823;28;66265;-35
2021/10/22 10:38:44;;;;;;;18.95;12.20;;;;;;;31.65;67.54;100974.38;5021810;28;71671;-35
2021/10/22 10:41:19;;;;;;;16.35;12.48;;;;;;;31.69;68.08;100975.59;5024642;28;66741;-35
2021/10/22 10:43:50;;;;;;;11.32;10.20;;;;;;;31.67;67.66;100975.00;5031713;28;69499;-34
2021/10/22 10:46:37;;;;;;;14.18;11.65;;;;;;;31.64;67.84;100972.72;5020424;28;66358;-35
2021/10/22 10:49:08;;;;;;;18.23;13.68;;;;;;;31.61;67.89;100969.41;5028565;28;70657;-36
2021/10/22 10:51:40;;;;;;;14.80;12.15;;;;;;;31.67;67.72;100977.69;5016685;28;66516;-35
2021/10/22 10:54:11;;;;;;;23.50;13.55;;;;;;;31.60;68.26;100973.19;5029964;28;70088;-36
2021/10/22 10:56:43;;;;;;;22.55;14.20;;;;;;;31.68;68.56;100984.78;5018233;28;66205;-34
2021/10/22 10:59:14;;;;;;;20.33;13.88;;;;;;;31.67;68.52;100989.38;5020717;28;68826;-34
2021/10/22 11:01:55;;;;;;;23.40;14.15;;;;;;;31.63;68.33;100998.19;5033786;28;65600;-34
2021/10/22 11:04:53;;;;;;;22.73;13.82;;;;;;;31.56;68.92;101009.09;5022415;28;69218;-35
2021/10/22 11:07:34;;;;;;;17.20;13.68;;;;;;;31.63;68.15;101014.47;5029914;28;66070;-35
2021/10/22 11:10:05;;;;;;;19.35;12.93;;;;;;;31.59;69.44;101014.91;5016336;28;68972;-35
2021/10/22 11:13:13;;;;;;;25.75;16.40;;;;;;;31.60;70.04;101040.97;5023464;28;66531;-36
2021/10/22 11:15:46;;;;;;;16.90;13.80;;;;;;;31.71;69.27;101044.84;5021611;28;69484;-34
2021/10/22 11:18:18;;;;;;;;;;;;;;;31.39;70.34;101046.75;5004717;28;66137;-36
2021/10/22 11:21:05;;;;;;;13.50;12.10;;;;;;;31.68;69.36;101048.00;5023731;28;69737;-35
2021/10/22 11:23:37;;;;;;;19.73;13.52;;;;;;;31.41;69.09;100995.88;5033038;28;66311;-35
2021/10/22 11:26:20;;;;;;;16.90;13.50;;;;;;;31.68;69.18;101047.16;5033400;28;69275;-34
2021/10/22 11:28:52;;;;;;;14.15;12.35;;;;;;;31.71;69.33;101047.56;5028871;28;66214;-36
2021/10/22 11:31:37;;;;;;;22.25;13.18;;;;;;;31.65;69.04;101044.88;5031634;28;69333;-35
2021/10/22 11:34:19;;;;;;;14.20;11.95;;;;;;;31.69;69.12;101059.69;5025694;28;66350;-35
2021/10/22 11:36:57;;;;;;;16.45;11.90;;;;;;;31.75;68.80;101056.06;5031505;28;70171;-35
2021/10/22 11:39:36;;;;;;;16.05;12.23;;;;;;;31.75;69.08;101061.50;5031652;28;66820;-34
2021/10/22 11:42:11;;;;;;;14.73;13.23;;;;;;;31.73;69.20;101069.00;5032458;28;70303;-35
2021/10/22 11:45:02;;;;;;;13.15;11.77;;;;;;;31.75;69.05;101072.34;5030494;28;65383;-36
2021/10/22 11:47:34;;;;;;;13.43;12.02;;;;;;;31.75;69.04;101077.75;5033708;28;69636;-35
2021/10/22 11:50:26;;;;;;;16.85;11.85;;;;;;;31.74;69.06;101076.13;5031509;28;65946;-35
2021/10/22 11:53:22;;;;;;;;;;;;;;;31.40;70.08;101075.53;5020625;28;69800;-35
2021/10/22 11:56:02;;;;;;;12.20;11.10;;;;;;;31.71;69.42;101082.81;5027390;28;66090;-35